createdAt,value
2022-12-03T00:00:38.352Z,12
2022-12-03T00:04:38.525Z,10
2022-12-03T00:06:38.623Z,11
2022-12-03T00:08:38.724Z,12
2022-12-03T00:10:38.799Z,11
2022-12-03T00:12:38.902Z,11
2022-12-03T00:14:44.368Z,11
2022-12-03T00:16:39.075Z,11
2022-12-03T00:18:39.156Z,9
2022-12-03T00:20:39.522Z,9
2022-12-03T00:22:39.319Z,10
2022-12-03T00:24:39.412Z,11
2022-12-03T00:26:39.500Z,11
2022-12-03T00:28:39.592Z,10
2022-12-03T00:30:39.807Z,11
2022-12-03T00:32:39.761Z,10
2022-12-03T00:34:39.878Z,9
2022-12-03T00:36:39.955Z,9
2022-12-03T00:38:40.054Z,9
2022-12-03T00:40:40.130Z,8
2022-12-03T00:42:40.203Z,7
2022-12-03T00:44:40.304Z,8
2022-12-03T00:46:40.479Z,9
2022-12-03T00:48:40.476Z,8
2022-12-03T00:50:40.586Z,7
2022-12-03T00:52:40.660Z,8
2022-12-03T00:54:40.756Z,7
2022-12-03T00:58:40.909Z,7
2022-12-03T01:00:41.011Z,7
2022-12-03T01:02:41.134Z,8
2022-12-03T01:04:41.335Z,8
2022-12-03T01:06:41.270Z,9
2022-12-03T01:08:41.349Z,8
2022-12-03T01:10:41.443Z,7
2022-12-03T01:12:41.537Z,8
2022-12-03T01:14:41.616Z,8
2022-12-03T01:16:41.704Z,8
2022-12-03T01:18:41.790Z,10
2022-12-03T01:20:41.910Z,8
2022-12-03T01:22:42.000Z,8
2022-12-03T01:25:12.105Z,9
2022-12-03T01:27:12.224Z,8
2022-12-03T01:31:12.468Z,8
2022-12-03T01:33:12.575Z,8
2022-12-03T01:35:12.710Z,8
2022-12-03T01:37:12.822Z,8
2022-12-03T01:39:12.926Z,9
2022-12-03T01:41:13.066Z,8
2022-12-03T01:43:13.236Z,7
2022-12-03T01:47:13.393Z,7
2022-12-03T01:49:13.507Z,8
2022-12-03T01:51:13.603Z,7
2022-12-03T01:53:13.723Z,7
2022-12-03T01:55:13.833Z,7
2022-12-03T01:57:13.944Z,7
2022-12-03T01:59:14.077Z,7
2022-12-03T02:01:14.272Z,7
2022-12-03T02:03:14.312Z,9
2022-12-03T02:05:14.430Z,9
2022-12-03T02:07:14.531Z,8
2022-12-03T02:09:14.661Z,9
2022-12-03T02:11:14.771Z,9
2022-12-03T02:13:14.858Z,9
2022-12-03T02:15:15.007Z,8
2022-12-03T02:19:15.217Z,7
2022-12-03T02:21:15.310Z,8
2022-12-03T02:23:15.456Z,8
2022-12-03T02:25:15.603Z,8
2022-12-03T02:27:15.653Z,8
2022-12-03T02:29:15.770Z,8
2022-12-03T02:31:15.962Z,7
2022-12-03T02:33:16.006Z,7
2022-12-03T02:35:16.124Z,7
2022-12-03T02:37:16.242Z,8
2022-12-03T02:39:16.358Z,8
2022-12-03T02:41:16.425Z,8
2022-12-03T02:43:16.548Z,8
2022-12-03T02:45:16.709Z,8
2022-12-03T02:47:16.775Z,8
2022-12-03T02:49:16.902Z,7
2022-12-03T02:51:17.000Z,8
2022-12-03T02:53:17.116Z,10
2022-12-03T02:55:17.191Z,8
2022-12-03T02:57:17.284Z,8
2022-12-03T03:01:17.582Z,8
2022-12-03T03:03:17.650Z,9
2022-12-03T03:05:17.728Z,8
2022-12-03T03:07:17.859Z,8
2022-12-03T03:09:17.974Z,8
2022-12-03T03:11:18.086Z,8
2022-12-03T03:13:18.202Z,8
2022-12-03T03:15:18.314Z,7
2022-12-03T03:17:18.431Z,8
2022-12-03T03:19:18.545Z,8
2022-12-03T03:21:18.632Z,8
2022-12-03T03:23:18.759Z,9
2022-12-03T03:27:18.948Z,8
2022-12-03T03:29:19.048Z,8
2022-12-03T03:31:19.191Z,8
2022-12-03T03:35:19.374Z,8
2022-12-03T03:37:19.448Z,8
2022-12-03T03:39:19.577Z,8
2022-12-03T03:41:19.676Z,8
2022-12-03T03:47:20.005Z,8
2022-12-03T03:49:20.104Z,8
2022-12-03T03:53:20.332Z,7
2022-12-03T03:57:20.535Z,7
2022-12-03T03:59:20.626Z,7
2022-12-03T04:01:20.823Z,7
2022-12-03T04:03:20.877Z,7
2022-12-03T04:05:20.978Z,7
2022-12-03T04:07:21.161Z,7
2022-12-03T04:09:21.197Z,9
2022-12-03T04:11:21.324Z,8
2022-12-03T04:13:21.430Z,8
2022-12-03T04:15:21.537Z,7
2022-12-03T04:17:21.646Z,8
2022-12-03T04:19:21.752Z,8
2022-12-03T04:21:21.858Z,9
2022-12-03T04:23:25.003Z,9
2022-12-03T04:25:22.105Z,10
2022-12-03T04:27:22.164Z,11
2022-12-03T04:29:22.301Z,12
2022-12-03T04:31:22.494Z,10
2022-12-03T04:33:22.498Z,12
2022-12-03T04:35:22.700Z,12
2022-12-03T04:37:22.705Z,10
2022-12-03T04:39:22.827Z,7
2022-12-03T04:43:23.032Z,7
2022-12-03T04:45:23.145Z,8
2022-12-03T04:47:23.259Z,7
2022-12-03T04:49:23.421Z,7
2022-12-03T04:51:23.449Z,9
2022-12-03T04:53:23.584Z,8
2022-12-03T04:55:23.850Z,10
2022-12-03T04:57:23.782Z,9
2022-12-03T04:59:23.926Z,10
2022-12-03T05:01:24.133Z,9
2022-12-03T05:03:24.124Z,12
2022-12-03T05:05:24.253Z,10
2022-12-03T05:07:24.415Z,9
2022-12-03T05:09:24.624Z,9
2022-12-03T05:11:24.546Z,9
2022-12-03T05:13:24.707Z,9
2022-12-03T05:15:24.736Z,8
2022-12-03T05:17:24.861Z,8
2022-12-03T05:19:24.959Z,8
2022-12-03T05:21:25.092Z,8
2022-12-03T05:23:25.160Z,8
2022-12-03T05:25:25.283Z,8
2022-12-03T05:27:25.392Z,17
2022-12-03T05:29:25.490Z,11
2022-12-03T05:31:25.729Z,7
2022-12-03T05:33:25.703Z,7
2022-12-03T05:35:25.802Z,9
2022-12-03T05:37:25.876Z,7
2022-12-03T05:41:26.119Z,8
2022-12-03T05:43:26.230Z,8
2022-12-03T05:45:26.311Z,8
2022-12-03T05:47:26.413Z,9
2022-12-03T05:49:26.514Z,8
2022-12-03T05:51:26.605Z,7
2022-12-03T05:53:26.721Z,8
2022-12-03T05:55:26.852Z,8
2022-12-03T05:57:26.932Z,10
2022-12-03T05:59:27.031Z,10
2022-12-03T06:01:27.102Z,10
2022-12-03T06:03:27.438Z,11
2022-12-03T06:05:27.330Z,9
2022-12-03T06:07:27.482Z,10
2022-12-03T06:09:27.532Z,8
2022-12-03T06:13:27.722Z,9
2022-12-03T06:15:27.812Z,8
2022-12-03T06:17:27.894Z,12
2022-12-03T06:19:27.996Z,13
2022-12-03T06:21:28.114Z,13
2022-12-03T06:23:28.230Z,12
2022-12-03T06:25:28.333Z,11
2022-12-03T06:27:28.428Z,11
2022-12-03T06:29:28.545Z,12
2022-12-03T06:31:28.747Z,13
2022-12-03T06:33:28.808Z,15
2022-12-03T06:35:28.835Z,17
2022-12-03T06:39:29.072Z,17
2022-12-03T06:41:29.117Z,19
2022-12-03T06:43:29.238Z,20
2022-12-03T06:45:29.341Z,20
2022-12-03T06:47:29.459Z,20
2022-12-03T06:49:29.554Z,21
2022-12-03T06:51:29.637Z,22
2022-12-03T06:53:29.799Z,21
2022-12-03T06:55:29.851Z,21
2022-12-03T06:57:29.930Z,21
2022-12-03T06:59:30.014Z,21
2022-12-03T07:01:30.169Z,20
2022-12-03T07:03:30.215Z,20
2022-12-03T07:07:30.479Z,18
2022-12-03T07:09:30.525Z,17
2022-12-03T07:11:30.638Z,18
2022-12-03T07:13:30.719Z,18
2022-12-03T07:15:30.910Z,17
2022-12-03T07:17:30.905Z,16
2022-12-03T07:19:32.853Z,16
2022-12-03T07:21:31.158Z,16
2022-12-03T07:23:31.219Z,16
2022-12-03T07:25:31.318Z,16
2022-12-03T07:27:31.373Z,15
2022-12-03T07:29:31.511Z,14
2022-12-03T07:31:31.700Z,13
2022-12-03T07:33:31.684Z,13
2022-12-03T07:35:31.784Z,14
2022-12-03T07:37:31.869Z,17
2022-12-03T07:39:31.983Z,17
2022-12-03T07:41:32.075Z,18
2022-12-03T07:43:32.154Z,20
2022-12-03T07:45:32.242Z,20
2022-12-03T07:47:32.356Z,20
2022-12-03T07:51:32.611Z,19
2022-12-03T07:53:32.635Z,20
2022-12-03T07:55:32.724Z,20
2022-12-03T07:57:32.851Z,19
2022-12-03T07:59:32.927Z,17
2022-12-03T08:01:33.112Z,17
2022-12-03T08:03:33.107Z,17
2022-12-03T08:05:33.217Z,18
2022-12-03T08:07:33.330Z,22
2022-12-03T08:09:33.406Z,31
2022-12-03T08:11:33.498Z,38
2022-12-03T08:13:33.570Z,47
2022-12-03T08:15:37.262Z,46
2022-12-03T08:17:33.793Z,44
2022-12-03T08:19:33.876Z,39
2022-12-03T08:21:33.975Z,35
2022-12-03T08:23:34.090Z,29
2022-12-03T08:25:34.219Z,27
2022-12-03T08:27:34.264Z,23
2022-12-03T08:29:34.345Z,24
2022-12-03T08:31:34.478Z,25
2022-12-03T08:33:34.542Z,27
2022-12-03T08:35:34.618Z,26
2022-12-03T08:37:34.737Z,25
2022-12-03T08:39:34.832Z,25
2022-12-03T08:41:34.903Z,23
2022-12-03T08:43:34.988Z,21
2022-12-03T08:45:35.278Z,20
2022-12-03T08:47:35.201Z,20
2022-12-03T08:49:35.310Z,19
2022-12-03T08:51:35.383Z,18
2022-12-03T08:53:35.484Z,19
2022-12-03T08:55:35.557Z,19
2022-12-03T08:59:35.729Z,16
2022-12-03T09:01:35.934Z,18
2022-12-03T09:03:35.922Z,16
2022-12-03T09:05:36.040Z,18
2022-12-03T09:07:36.165Z,19
2022-12-03T09:09:36.204Z,18
2022-12-03T09:11:36.282Z,18
2022-12-03T09:13:36.383Z,16
2022-12-03T09:15:36.460Z,17
2022-12-03T09:17:36.573Z,19
2022-12-03T09:19:40.055Z,17
2022-12-03T09:21:36.719Z,18
2022-12-03T09:23:36.823Z,18
2022-12-03T09:25:36.885Z,18
2022-12-03T09:27:36.963Z,23
2022-12-03T09:29:37.114Z,25
2022-12-03T09:31:37.224Z,25
2022-12-03T09:33:37.231Z,22
2022-12-03T09:35:37.334Z,21
2022-12-03T09:37:37.435Z,22
2022-12-03T09:39:37.535Z,21
2022-12-03T09:41:37.597Z,21
2022-12-03T09:44:03.146Z,19
2022-12-03T09:45:37.800Z,18
2022-12-03T09:47:37.902Z,18
2022-12-03T09:49:37.925Z,15
2022-12-03T09:52:08.196Z,15
2022-12-03T09:54:08.177Z,15
2022-12-03T09:56:08.284Z,14
2022-12-03T09:58:08.396Z,13
2022-12-03T10:00:08.500Z,12
2022-12-03T10:02:08.680Z,11
2022-12-03T10:04:08.766Z,13
2022-12-03T10:06:08.853Z,12
2022-12-03T10:08:09.105Z,10
2022-12-03T10:10:09.090Z,11
2022-12-03T10:12:09.184Z,11
2022-12-03T10:14:09.283Z,12
2022-12-03T10:16:09.404Z,11
2022-12-03T10:18:09.528Z,12
2022-12-03T10:20:09.623Z,13
2022-12-03T10:22:09.729Z,13
2022-12-03T10:26:09.951Z,12
2022-12-03T10:28:10.024Z,12
2022-12-03T10:32:10.267Z,13
2022-12-03T10:34:10.375Z,13
2022-12-03T10:36:10.459Z,14
2022-12-03T10:38:10.583Z,14
2022-12-03T10:40:10.691Z,14
2022-12-03T10:42:10.807Z,14
2022-12-03T10:44:10.919Z,13
2022-12-03T10:46:11.149Z,14
2022-12-03T10:48:11.104Z,15
2022-12-03T10:50:11.228Z,15
2022-12-03T10:52:11.350Z,15
2022-12-03T10:54:11.431Z,16
2022-12-03T10:56:11.546Z,17
2022-12-03T10:58:11.634Z,29
2022-12-03T11:00:11.749Z,24
2022-12-03T11:02:11.847Z,17
2022-12-03T11:04:11.938Z,14
2022-12-03T11:06:12.052Z,16
2022-12-03T11:08:12.246Z,17
2022-12-03T11:10:12.264Z,15
2022-12-03T11:12:12.362Z,16
2022-12-03T11:14:13.963Z,15
2022-12-03T11:16:12.642Z,14
2022-12-03T11:18:12.694Z,13
2022-12-03T11:20:16.811Z,13
2022-12-03T11:22:12.832Z,12
2022-12-03T11:24:12.932Z,12
2022-12-03T11:26:18.408Z,14
2022-12-03T11:28:13.194Z,15
2022-12-03T11:30:13.246Z,14
2022-12-03T11:32:13.326Z,12
2022-12-03T11:34:13.429Z,12
2022-12-03T11:36:13.497Z,13
2022-12-03T11:38:13.619Z,13
2022-12-03T11:40:13.713Z,14
2022-12-03T11:42:13.812Z,14
2022-12-03T11:44:13.882Z,15
2022-12-03T11:46:13.997Z,16
2022-12-03T11:48:14.078Z,16
2022-12-03T11:50:14.204Z,36
2022-12-03T11:52:14.307Z,91
2022-12-03T11:54:14.352Z,67
2022-12-03T11:56:14.489Z,39
2022-12-03T11:58:14.566Z,33
2022-12-03T12:00:14.718Z,23
2022-12-03T12:02:14.802Z,20
2022-12-03T12:04:14.923Z,20
2022-12-03T12:06:14.963Z,19
2022-12-03T12:08:15.193Z,16
2022-12-03T12:10:15.234Z,14
2022-12-03T12:12:15.259Z,17
2022-12-03T12:14:15.350Z,28
2022-12-03T12:16:15.504Z,19
2022-12-03T12:18:15.520Z,28
2022-12-03T12:20:15.621Z,38
2022-12-03T12:22:15.790Z,28
2022-12-03T12:24:15.814Z,26
2022-12-03T12:26:15.876Z,20
2022-12-03T12:28:16.040Z,38
2022-12-03T12:30:16.066Z,22
2022-12-03T12:32:16.151Z,24
2022-12-03T12:34:16.246Z,20
2022-12-03T12:36:16.380Z,26
2022-12-03T12:38:16.450Z,18
2022-12-03T12:40:16.547Z,16
2022-12-03T12:42:16.647Z,15
2022-12-03T12:44:16.744Z,11
2022-12-03T12:46:46.791Z,10
2022-12-03T12:48:16.938Z,10
2022-12-03T12:50:16.972Z,10
2022-12-03T12:52:17.070Z,14
2022-12-03T12:54:17.173Z,15
2022-12-03T12:56:17.255Z,19
2022-12-03T12:58:17.345Z,15
2022-12-03T13:00:17.431Z,16
2022-12-03T13:02:17.615Z,15
2022-12-03T13:04:17.631Z,18
2022-12-03T13:08:17.936Z,18
2022-12-03T13:10:17.872Z,16
2022-12-03T13:12:17.943Z,14
2022-12-03T13:14:18.065Z,14
2022-12-03T13:16:18.179Z,22
2022-12-03T13:18:18.212Z,16
2022-12-03T13:20:18.311Z,14
2022-12-03T13:22:18.379Z,17
2022-12-03T13:24:18.475Z,16
2022-12-03T13:26:30.429Z,14
2022-12-03T13:28:18.684Z,15
2022-12-03T13:30:18.704Z,14
2022-12-03T13:32:18.804Z,15
2022-12-03T13:34:18.887Z,16
2022-12-03T13:36:18.982Z,15
2022-12-03T13:38:19.073Z,17
2022-12-03T13:40:19.139Z,16
2022-12-03T13:42:19.225Z,16
2022-12-03T13:44:19.308Z,17
2022-12-03T13:46:49.436Z,15
2022-12-03T13:50:49.706Z,14
2022-12-03T13:52:49.829Z,15
2022-12-03T13:54:49.940Z,15
2022-12-03T13:56:50.066Z,16
2022-12-03T13:58:50.163Z,17
2022-12-03T14:00:50.346Z,18
2022-12-03T14:02:50.498Z,19
2022-12-03T14:04:54.099Z,17
2022-12-03T14:06:50.627Z,14
2022-12-03T14:08:50.744Z,16
2022-12-03T14:10:54.232Z,16
2022-12-03T14:12:50.973Z,17
2022-12-03T14:14:51.087Z,13
2022-12-03T14:16:54.139Z,12
2022-12-03T14:18:51.300Z,12
2022-12-03T14:20:51.422Z,13
2022-12-03T14:22:56.395Z,11
2022-12-03T14:24:51.640Z,13
2022-12-03T14:26:51.767Z,13
2022-12-03T14:28:51.879Z,11
2022-12-03T14:30:52.007Z,11
2022-12-03T14:32:52.297Z,20
2022-12-03T14:34:52.208Z,15
2022-12-03T14:36:52.331Z,14
2022-12-03T14:38:52.441Z,13
2022-12-03T14:40:52.529Z,13
2022-12-03T14:42:52.632Z,13
2022-12-03T14:46:57.016Z,14
2022-12-03T14:48:52.963Z,14
2022-12-03T14:50:53.114Z,12
2022-12-03T14:52:53.181Z,12
2022-12-03T14:54:53.294Z,14
2022-12-03T14:58:53.524Z,15
2022-12-03T15:00:53.672Z,17
2022-12-03T15:02:53.784Z,17
2022-12-03T15:04:53.879Z,20
2022-12-03T15:06:53.948Z,22
2022-12-03T15:08:54.083Z,22
2022-12-03T15:10:54.214Z,21
2022-12-03T15:12:54.275Z,22
2022-12-03T15:14:54.394Z,24
2022-12-03T15:16:54.602Z,25
2022-12-03T15:18:54.599Z,24
2022-12-03T15:20:54.719Z,19
2022-12-03T15:22:54.794Z,19
2022-12-03T15:24:54.910Z,19
2022-12-03T15:26:55.002Z,16
2022-12-03T15:28:55.127Z,17
2022-12-03T15:30:55.298Z,18
2022-12-03T15:32:55.337Z,16
2022-12-03T15:34:55.422Z,18
2022-12-03T15:36:55.538Z,74
2022-12-03T15:38:55.614Z,83
2022-12-03T15:40:55.725Z,58
2022-12-03T15:42:55.823Z,43
2022-12-03T15:44:55.931Z,36
2022-12-03T15:46:56.040Z,32
2022-12-03T15:48:56.142Z,35
2022-12-03T15:50:56.255Z,36
2022-12-03T15:52:56.360Z,34
2022-12-03T15:54:56.450Z,31
2022-12-03T15:56:57.489Z,27
2022-12-03T15:58:56.664Z,24
2022-12-03T16:00:56.755Z,23
2022-12-03T16:02:56.970Z,34
2022-12-03T16:04:56.980Z,36
2022-12-03T16:06:57.075Z,35
2022-12-03T16:08:57.185Z,38
2022-12-03T16:10:57.251Z,41
2022-12-03T16:12:57.371Z,58
2022-12-03T16:14:57.464Z,60
2022-12-03T16:16:57.574Z,48
2022-12-03T16:18:57.656Z,38
2022-12-03T16:20:57.766Z,25
2022-12-03T16:22:57.860Z,24
2022-12-03T16:24:57.956Z,28
2022-12-03T16:26:58.060Z,28
2022-12-03T16:28:58.141Z,36
2022-12-03T16:30:58.344Z,52
2022-12-03T16:32:58.341Z,52
2022-12-03T16:34:58.454Z,43
2022-12-03T16:36:58.533Z,43
2022-12-03T16:38:58.649Z,41
2022-12-03T16:40:58.747Z,40
2022-12-03T16:42:58.877Z,37
2022-12-03T16:44:58.942Z,36
2022-12-03T16:46:59.049Z,37
2022-12-03T16:48:59.172Z,42
2022-12-03T16:50:59.259Z,43
2022-12-03T16:52:59.360Z,43
2022-12-03T16:54:59.442Z,41
2022-12-03T16:56:59.564Z,34
2022-12-03T16:58:59.636Z,34
2022-12-03T17:00:59.752Z,35
2022-12-03T17:02:59.943Z,33
2022-12-03T17:04:59.960Z,34
2022-12-03T17:07:00.078Z,32
2022-12-03T17:09:00.146Z,28
2022-12-03T17:11:00.313Z,26
2022-12-03T17:13:09.273Z,27
2022-12-03T17:15:00.439Z,29
2022-12-03T17:17:00.531Z,29
2022-12-03T17:19:00.607Z,30
2022-12-03T17:21:00.717Z,31
2022-12-03T17:23:00.827Z,32
2022-12-03T17:25:00.985Z,31
2022-12-03T17:27:01.034Z,28
2022-12-03T17:29:01.105Z,24
2022-12-03T17:31:01.324Z,24
2022-12-03T17:33:01.314Z,21
2022-12-03T17:35:01.409Z,21
2022-12-03T17:37:01.516Z,24
2022-12-03T17:39:01.605Z,30
2022-12-03T17:41:01.700Z,32
2022-12-03T17:43:01.788Z,32
2022-12-03T17:45:01.892Z,36
2022-12-03T17:47:02.004Z,30
2022-12-03T17:49:02.066Z,30
2022-12-03T17:51:02.173Z,28
2022-12-03T17:53:02.248Z,23
2022-12-03T17:55:11.741Z,26
2022-12-03T17:59:02.560Z,28
2022-12-03T18:01:03.294Z,28
2022-12-03T18:03:02.724Z,31
2022-12-03T18:05:02.846Z,27
2022-12-03T18:07:02.902Z,26
2022-12-03T18:09:03.009Z,23
2022-12-03T18:11:03.094Z,20
2022-12-03T18:13:03.203Z,22
2022-12-03T18:15:03.298Z,25
2022-12-03T18:17:03.362Z,30
2022-12-03T18:19:06.398Z,22
2022-12-03T18:21:03.532Z,22
2022-12-03T18:23:03.643Z,25
2022-12-03T18:25:03.706Z,35
2022-12-03T18:27:03.856Z,26
2022-12-03T18:29:03.909Z,21
2022-12-03T18:31:04.078Z,21
2022-12-03T18:33:04.099Z,26
2022-12-03T18:35:04.173Z,26
2022-12-03T18:37:04.295Z,31
2022-12-03T18:39:04.373Z,23
2022-12-03T18:41:04.475Z,23
2022-12-03T18:43:04.541Z,22
2022-12-03T18:45:04.646Z,21
2022-12-03T18:47:04.868Z,32
2022-12-03T18:49:04.829Z,48
2022-12-03T18:51:04.999Z,50
2022-12-03T18:53:05.021Z,52
2022-12-03T18:55:05.156Z,51
2022-12-03T18:57:05.224Z,46
2022-12-03T18:59:05.386Z,49
2022-12-03T19:01:05.425Z,54
2022-12-03T19:03:05.658Z,54
2022-12-03T19:05:05.597Z,77
2022-12-03T19:07:05.730Z,114
2022-12-03T19:09:05.774Z,63
2022-12-03T19:11:05.854Z,55
2022-12-03T19:13:05.940Z,37
2022-12-03T19:15:06.007Z,34
2022-12-03T19:17:06.100Z,45
2022-12-03T19:19:06.182Z,78
2022-12-03T19:21:06.269Z,94
2022-12-03T19:23:06.381Z,63
2022-12-03T19:25:06.467Z,54
2022-12-03T19:27:06.544Z,37
2022-12-03T19:29:06.638Z,36
2022-12-03T19:31:06.751Z,37
2022-12-03T19:33:06.794Z,29
2022-12-03T19:35:06.918Z,28
2022-12-03T19:37:07.005Z,26
2022-12-03T19:39:07.087Z,24
2022-12-03T19:41:07.169Z,23
2022-12-03T19:43:37.293Z,22
2022-12-03T19:45:37.507Z,26
2022-12-03T19:47:37.531Z,26
2022-12-03T19:49:37.633Z,25
2022-12-03T19:51:37.764Z,27
2022-12-03T19:53:37.832Z,26
2022-12-03T19:55:37.949Z,25
2022-12-03T19:57:38.096Z,27
2022-12-03T19:59:38.204Z,33
2022-12-03T20:01:38.431Z,28
2022-12-03T20:03:38.440Z,25
2022-12-03T20:05:38.563Z,27
2022-12-03T20:07:38.834Z,28
2022-12-03T20:09:38.803Z,21
2022-12-03T20:11:38.907Z,22
2022-12-03T20:13:39.041Z,22
2022-12-03T20:15:39.134Z,24
2022-12-03T20:17:39.249Z,29
2022-12-03T20:19:39.366Z,30
2022-12-03T20:21:39.513Z,36
2022-12-03T20:23:39.613Z,23
2022-12-03T20:25:39.718Z,22
2022-12-03T20:27:39.835Z,24
2022-12-03T20:29:39.956Z,25
2022-12-03T20:31:40.134Z,28
2022-12-03T20:33:40.186Z,28
2022-12-03T20:35:40.322Z,27
2022-12-03T20:37:40.441Z,23
2022-12-03T20:39:40.542Z,23
2022-12-03T20:41:40.654Z,22
2022-12-03T20:43:40.755Z,23
2022-12-03T20:45:40.943Z,29
2022-12-03T20:47:41.011Z,32
2022-12-03T20:49:41.183Z,30
2022-12-03T20:51:41.250Z,31
2022-12-03T20:53:41.343Z,32
2022-12-03T20:55:41.471Z,28
2022-12-03T20:57:41.536Z,27
2022-12-03T20:59:41.655Z,28
2022-12-03T21:01:41.902Z,23
2022-12-03T21:03:41.882Z,21
2022-12-03T21:05:42.022Z,21
2022-12-03T21:07:42.207Z,22
2022-12-03T21:09:42.278Z,18
2022-12-03T21:11:42.386Z,19
2022-12-03T21:13:42.449Z,19
2022-12-03T21:15:42.568Z,21
2022-12-03T21:17:42.754Z,20
2022-12-03T21:19:42.778Z,23
2022-12-03T21:21:42.922Z,21
2022-12-03T21:23:43.001Z,23
2022-12-03T21:25:43.106Z,24
2022-12-03T21:27:43.221Z,23
2022-12-03T21:31:43.445Z,23
2022-12-03T21:33:43.572Z,24
2022-12-03T21:35:43.649Z,31
2022-12-03T21:37:43.740Z,31
2022-12-03T21:39:43.876Z,37
2022-12-03T21:42:18.920Z,36
2022-12-03T21:43:44.074Z,35
2022-12-03T21:45:44.219Z,33
2022-12-03T21:47:44.366Z,33
2022-12-03T21:49:44.402Z,31
2022-12-03T21:51:44.497Z,30
2022-12-03T21:53:44.625Z,29
2022-12-03T21:55:44.716Z,24
2022-12-03T21:57:44.830Z,18
2022-12-03T21:59:44.915Z,12
2022-12-03T22:01:47.382Z,12
2022-12-03T22:03:45.115Z,14
2022-12-03T22:05:45.232Z,15
2022-12-03T22:07:45.439Z,16
2022-12-03T22:09:45.459Z,16
2022-12-03T22:11:45.571Z,17
2022-12-03T22:13:45.639Z,17
2022-12-03T22:15:45.790Z,18
2022-12-03T22:17:45.878Z,18
2022-12-03T22:19:45.986Z,18
2022-12-03T22:21:46.100Z,17
2022-12-03T22:23:46.200Z,17
2022-12-03T22:25:46.317Z,17
2022-12-03T22:27:46.429Z,16
2022-12-03T22:29:46.515Z,16
2022-12-03T22:31:46.693Z,15
2022-12-03T22:35:46.815Z,15
2022-12-03T22:37:46.885Z,15
2022-12-03T22:39:46.997Z,16
2022-12-03T22:41:47.099Z,16
2022-12-03T22:43:47.236Z,16
2022-12-03T22:45:47.348Z,16
2022-12-03T22:47:47.458Z,17
2022-12-03T22:49:47.572Z,17
2022-12-03T22:51:47.665Z,20
2022-12-03T22:53:47.774Z,15
2022-12-03T22:55:47.876Z,16
2022-12-03T22:57:47.981Z,17
2022-12-03T22:59:48.077Z,16
2022-12-03T23:01:48.166Z,17
2022-12-03T23:03:48.338Z,15
2022-12-03T23:05:48.370Z,14
2022-12-03T23:07:48.562Z,15
2022-12-03T23:09:48.591Z,14
2022-12-03T23:11:48.684Z,12
2022-12-03T23:13:48.812Z,11
2022-12-03T23:15:48.986Z,10
2022-12-03T23:17:48.998Z,8
2022-12-03T23:19:49.104Z,9
2022-12-03T23:21:49.213Z,10
2022-12-03T23:23:49.316Z,11
2022-12-03T23:25:49.405Z,11
2022-12-03T23:27:49.518Z,12
2022-12-03T23:29:49.638Z,13
2022-12-03T23:31:49.849Z,12
2022-12-03T23:33:49.850Z,17
2022-12-03T23:35:49.927Z,15
2022-12-03T23:37:50.038Z,14
2022-12-03T23:39:50.143Z,13
2022-12-03T23:41:50.248Z,11
2022-12-03T23:43:50.341Z,11
2022-12-03T23:45:50.458Z,9
2022-12-03T23:47:56.608Z,9
2022-12-03T23:49:50.638Z,9
2022-12-03T23:51:50.742Z,10
2022-12-03T23:55:50.953Z,10
2022-12-03T23:57:51.043Z,10
2022-12-03T23:59:51.232Z,10
